Time;durP1;ratioP1;P1;durP2;ratioP2;P2;SDS_P1;SDS_P2;PMS_P1;PMS_P2;Temp;Humidity;BMP_temperature;BMP_pressure;BME280_temperature;BME280_humidity;BME280_pressure;Samples;Min_cycle;Max_cycle;Signal;HPM_P1;HPM_P2
2022/10/27 00:01:47;;;;;;;17.90;5.90;;;;;;;22.80;100.00;101959.59;5004367;28;20033;-50
2022/10/27 00:04:12;;;;;;;11.45;5.28;;;;;;;22.85;100.00;101956.97;5009248;28;20100;-48
2022/10/27 00:06:37;;;;;;;19.40;5.43;;;;;;;22.89;100.00;101953.44;5013452;28;20038;-51
2022/10/27 00:09:03;;;;;;;24.97;6.20;;;;;;;22.52;100.00;101955.91;5010352;28;20038;-49
2022/10/27 00:11:29;;;;;;;20.88;5.93;;;;;;;22.76;100.00;101957.38;5003271;28;20044;-49
2022/10/27 00:13:54;;;;;;;24.67;7.20;;;;;;;23.02;100.00;101959.63;5005465;28;20038;-48
2022/10/27 00:16:20;;;;;;;17.73;7.22;;;;;;;22.59;100.00;101959.28;5006049;28;20090;-50
2022/10/27 00:18:46;;;;;;;16.88;6.28;;;;;;;22.62;100.00;101948.72;5002322;28;20060;-48
2022/10/27 00:21:17;;;;;;;14.85;6.07;;;;;;;22.73;100.00;101955.16;5013686;28;20066;-47
2022/10/27 00:23:43;;;;;;;12.97;6.07;;;;;;;22.62;100.00;101958.81;5000756;28;20088;-49
2022/10/27 00:26:10;;;;;;;;;;;;;;;22.55;100.00;101953.53;5010872;28;20034;-50
2022/10/27 00:28:36;;;;;;;12.73;6.78;;;;;;;22.87;100.00;101966.53;5007145;28;19939;-48
2022/10/27 00:31:05;;;;;;;12.70;6.18;;;;;;;22.73;100.00;101966.06;5004206;28;20545;-47
2022/10/27 00:33:31;;;;;;;17.60;6.73;;;;;;;22.55;100.00;101971.78;5007012;28;20035;-50
2022/10/27 00:36:03;;;;;;;13.50;6.72;;;;;;;22.00;100.00;101969.47;5005777;28;20061;-50
2022/10/27 00:38:29;;;;;;;13.63;6.93;;;;;;;21.93;100.00;101966.09;5005649;28;20049;-49
2022/10/27 00:40:54;;;;;;;24.52;7.20;;;;;;;23.05;100.00;101968.13;5008367;28;20061;-47
2022/10/27 00:43:40;;;;;;;12.83;6.03;;;;;;;23.22;100.00;101977.34;4998965;28;20070;-49
2022/10/27 00:46:25;;;;;;;13.80;6.47;;;;;;;22.28;100.00;101975.13;4998352;28;20069;-48
2022/10/27 00:48:55;;;;;;;17.83;6.97;;;;;;;22.14;100.00;101970.00;5006805;28;20038;-49
2022/10/27 00:51:22;;;;;;;17.97;6.93;;;;;;;21.83;100.00;101963.19;5002907;28;20283;-48
2022/10/27 00:53:48;;;;;;;16.20;7.10;;;;;;;22.02;100.00;101966.53;5000351;28;20291;-52
2022/10/27 00:56:15;;;;;;;15.43;6.82;;;;;;;21.91;100.00;101971.81;5004965;28;20041;-50
2022/10/27 00:58:44;;;;;;;14.30;6.87;;;;;;;21.78;100.00;101977.53;5003217;28;20038;-50
2022/10/27 01:01:10;;;;;;;17.63;7.17;;;;;;;21.59;100.00;101966.81;5018016;28;20275;-54
2022/10/27 01:03:37;;;;;;;17.37;7.30;;;;;;;21.60;100.00;101971.19;5005348;28;20374;-51
2022/10/27 01:06:03;;;;;;;13.63;6.25;;;;;;;21.76;100.00;101979.69;4998952;28;20269;-50
2022/10/27 01:08:29;;;;;;;17.23;6.57;;;;;;;21.87;100.00;101975.25;5007644;28;20102;-54
2022/10/27 01:10:55;;;;;;;15.95;6.78;;;;;;;21.99;100.00;101972.47;5002466;28;20038;-54
2022/10/27 01:13:22;;;;;;;15.45;5.85;;;;;;;21.54;100.00;101974.03;5006835;28;20041;-54
2022/10/27 01:16:07;;;;;;;14.97;7.10;;;;;;;21.47;100.00;101972.28;5008487;28;20093;-53
2022/10/27 01:18:48;;;;;;;14.13;6.27;;;;;;;21.75;100.00;101978.03;4997611;28;20337;-51
2022/10/27 01:21:40;;;;;;;12.40;5.70;;;;;;;21.62;100.00;101984.56;5015279;28;20257;-52
2022/10/27 01:24:40;;;;;;;14.10;6.30;;;;;;;21.94;100.00;101980.56;5003217;28;20310;-52
2022/10/27 01:27:31;;;;;;;16.30;6.80;;;;;;;21.56;100.00;101975.47;5005616;28;20268;-52
2022/10/27 01:30:05;;;;;;;15.97;6.57;;;;;;;21.34;100.00;101978.03;5009219;28;20035;-53
2022/10/27 01:32:44;;;;;;;11.33;6.10;;;;;;;21.33;100.00;101988.06;4996501;28;20277;-51
2022/10/27 01:35:25;;;;;;;16.77;6.30;;;;;;;21.30;100.00;101985.84;5004242;28;20287;-54
2022/10/27 01:38:11;;;;;;;12.87;6.53;;;;;;;21.34;100.00;101988.91;5004294;28;20280;-50
2022/10/27 01:41:01;;;;;;;12.97;6.13;;;;;;;21.16;100.00;101985.28;5007632;28;20333;-53
2022/10/27 01:43:29;;;;;;;15.90;7.30;;;;;;;21.52;100.00;101989.78;5005393;28;20288;-47
2022/10/27 01:45:56;;;;;;;10.17;5.83;;;;;;;21.30;100.00;101987.72;5002533;28;20276;-53
2022/10/27 01:48:22;;;;;;;13.10;6.17;;;;;;;21.31;100.00;101983.91;4997997;28;20273;-49
2022/10/27 01:50:48;;;;;;;10.25;5.10;;;;;;;21.18;100.00;101985.84;5008132;28;20288;-48
2022/10/27 01:53:15;;;;;;;11.30;5.47;;;;;;;21.37;100.00;101988.41;5002272;28;20030;-49
2022/10/27 01:56:04;;;;;;;13.55;6.32;;;;;;;21.33;100.00;101981.78;5015547;28;20094;-52
2022/10/27 01:58:51;;;;;;;13.37;6.17;;;;;;;21.41;100.00;101981.44;5003455;28;20042;-51
2022/10/27 02:01:39;;;;;;;17.63;6.22;;;;;;;20.96;100.00;101982.91;5013102;28;20295;-51
2022/10/27 02:04:14;;;;;;;10.60;6.30;;;;;;;21.02;100.00;101976.53;5005351;28;20050;-51
2022/10/27 02:06:48;;;;;;;12.93;5.53;;;;;;;21.08;100.00;101973.94;4997903;28;20281;-51
2022/10/27 02:09:24;;;;;;;22.00;5.67;;;;;;;20.98;100.00;101972.63;5015382;28;20264;-47
2022/10/27 02:11:52;;;;;;;17.27;5.53;;;;;;;20.83;100.00;101961.41;5000961;28;20268;-51
2022/10/27 02:14:19;;;;;;;13.63;5.50;;;;;;;20.53;100.00;101968.59;5008834;28;20268;-47
2022/10/27 02:16:50;;;;;;;14.83;6.00;;;;;;;20.82;100.00;101965.22;5007307;28;20307;-50
2022/10/27 02:19:39;;;;;;;15.13;6.33;;;;;;;20.58;100.00;101966.00;5005411;28;20331;-48
2022/10/27 02:22:05;;;;;;;16.47;6.07;;;;;;;20.89;100.00;101960.47;5008709;28;20288;-50
2022/10/27 02:24:32;;;;;;;17.17;5.87;;;;;;;20.91;100.00;101966.50;5010260;28;20294;-50
2022/10/27 02:27:27;;;;;;;13.15;5.57;;;;;;;21.33;100.00;101969.03;5006785;28;20273;-47
2022/10/27 02:29:56;;;;;;;15.97;6.07;;;;;;;20.90;100.00;101962.13;4998996;28;20043;-48
2022/10/27 02:32:23;;;;;;;19.87;5.87;;;;;;;20.73;100.00;101962.78;5005121;28;20394;-48
2022/10/27 02:34:49;;;;;;;12.37;5.30;;;;;;;20.63;100.00;101959.84;4997762;28;20272;-48
2022/10/27 02:37:20;;;;;;;13.57;5.60;;;;;;;20.66;100.00;101956.66;5014968;28;20269;-49
2022/10/27 02:39:46;;;;;;;14.17;5.60;;;;;;;20.68;100.00;101948.28;5001707;28;20348;-50
2022/10/27 02:42:11;;;;;;;27.03;6.70;;;;;;;20.44;100.00;101954.53;5009329;28;20292;-49
2022/10/27 02:44:37;;;;;;;18.73;6.28;;;;;;;20.41;100.00;101951.44;5007483;28;20031;-48
2022/10/27 02:47:02;;;;;;;16.30;5.78;;;;;;;20.75;100.00;101946.25;5012036;28;20042;-52
2022/10/27 02:49:28;;;;;;;12.60;5.90;;;;;;;20.88;100.00;101953.38;5011950;28;20042;-50
2022/10/27 02:51:53;;;;;;;16.90;6.53;;;;;;;20.89;100.00;101949.59;5005445;28;20053;-51
2022/10/27 02:54:19;;;;;;;15.93;5.55;;;;;;;20.89;100.00;101944.16;5000084;28;20094;-49
2022/10/27 02:56:44;;;;;;;11.90;5.65;;;;;;;20.82;100.00;101943.47;5009994;28;20031;-49
2022/10/27 02:59:10;;;;;;;10.63;6.20;;;;;;;21.03;100.00;101951.00;5006870;28;20047;-53
2022/10/27 03:01:35;;;;;;;13.40;5.90;;;;;;;20.48;100.00;101941.31;5011275;28;20049;-53
2022/10/27 03:04:01;;;;;;;13.82;6.05;;;;;;;20.76;100.00;101946.03;5013643;28;20045;-51
2022/10/27 03:06:26;;;;;;;15.45;6.03;;;;;;;20.67;100.00;101935.75;5001714;28;20031;-48
2022/10/27 03:08:52;;;;;;;16.80;6.33;;;;;;;20.49;100.00;101942.97;5006785;28;20062;-49
2022/10/27 03:11:17;;;;;;;12.37;5.23;;;;;;;20.40;100.00;101939.75;5011339;28;20122;-51
2022/10/27 03:13:43;;;;;;;11.15;4.95;;;;;;;20.54;100.00;101936.81;5001473;28;20030;-50
2022/10/27 03:16:08;;;;;;;10.52;5.90;;;;;;;20.29;100.00;101935.13;5013832;28;20059;-50
2022/10/27 03:18:34;;;;;;;10.57;5.40;;;;;;;20.37;100.00;101931.25;5000597;28;20058;-50
2022/10/27 03:20:59;;;;;;;10.77;5.30;;;;;;;20.37;100.00;101923.09;5008387;28;20039;-52
2022/10/27 03:23:25;;;;;;;11.60;5.60;;;;;;;20.50;100.00;101925.59;5006016;28;20064;-50
2022/10/27 03:25:51;;;;;;;12.23;5.82;;;;;;;20.32;100.00;101921.91;5001674;28;20035;-48
2022/10/27 03:28:16;;;;;;;17.38;6.45;;;;;;;20.55;100.00;101923.00;5017382;28;20042;-48
2022/10/27 03:30:42;;;;;;;13.23;5.50;;;;;;;20.59;100.00;101924.16;5005709;28;20058;-48
2022/10/27 03:33:07;;;;;;;18.38;6.80;;;;;;;20.34;100.00;101927.94;5004026;28;20034;-49
2022/10/27 03:35:33;;;;;;;15.07;5.88;;;;;;;20.31;100.00;101925.69;5009271;28;20039;-46
2022/10/27 03:38:00;;;;;;;12.18;5.57;;;;;;;20.18;100.00;101929.47;5010269;28;20042;-51
2022/10/27 03:40:27;;;;;;;14.03;5.83;;;;;;;20.09;100.00;101928.16;5005311;28;20049;-51
2022/10/27 03:42:57;;;;;;;22.73;5.93;;;;;;;20.56;100.00;101924.63;4999743;28;20288;-50
2022/10/27 03:45:25;;;;;;;15.37;5.50;;;;;;;20.61;100.00;101929.38;5009428;28;20035;-51
2022/10/27 03:48:02;;;;;;;12.90;5.83;;;;;;;20.88;100.00;101923.47;4995795;28;20299;-48
2022/10/27 03:50:28;;;;;;;;;;;;;;;20.54;100.00;101928.69;5008370;28;20280;-47
2022/10/27 03:52:53;;;;;;;12.97;5.37;;;;;;;20.69;100.00;101928.19;5000068;28;19942;-48
2022/10/27 03:55:19;;;;;;;18.17;5.65;;;;;;;20.76;100.00;101924.28;4995100;28;20058;-47
2022/10/27 03:57:44;;;;;;;11.82;5.28;;;;;;;21.10;100.00;101931.00;5002236;28;20037;-49
2022/10/27 04:00:10;;;;;;;13.30;6.10;;;;;;;21.32;100.00;101932.00;5005200;28;20046;-48
2022/10/27 04:02:37;;;;;;;12.87;5.83;;;;;;;21.38;100.00;101929.38;5004034;28;20029;-51
2022/10/27 04:05:03;;;;;;;10.55;5.18;;;;;;;21.51;100.00;101929.09;5006677;28;20330;-51
2022/10/27 04:07:29;;;;;;;12.48;5.72;;;;;;;21.49;100.00;101931.25;5011966;28;20034;-49
2022/10/27 04:09:54;;;;;;;10.68;5.22;;;;;;;21.44;100.00;101933.84;5007970;28;20061;-51
2022/10/27 04:12:20;;;;;;;11.27;4.90;;;;;;;21.35;100.00;101931.50;5004029;28;20085;-48
2022/10/27 04:14:45;;;;;;;12.03;4.83;;;;;;;21.22;100.00;101942.69;4999102;28;20058;-51
2022/10/27 04:17:11;;;;;;;15.65;4.78;;;;;;;21.18;100.00;101936.06;5003962;28;20042;-51
2022/10/27 04:19:36;;;;;;;11.52;5.20;;;;;;;21.12;100.00;101943.31;5006626;28;20062;-53
2022/10/27 04:22:02;;;;;;;13.57;5.55;;;;;;;20.98;100.00;101942.72;5008401;28;20042;-49
2022/10/27 04:24:27;;;;;;;12.27;5.25;;;;;;;21.05;100.00;101956.19;5007446;28;20030;-51
2022/10/27 04:26:53;;;;;;;10.83;5.10;;;;;;;20.60;100.00;101946.75;5004735;28;20050;-52
2022/10/27 04:29:18;;;;;;;13.97;4.50;;;;;;;20.46;100.00;101946.97;5003696;28;20045;-52
2022/10/27 04:31:44;;;;;;;10.60;5.78;;;;;;;20.42;100.00;101951.22;5009406;28;20026;-51
2022/10/27 04:34:09;;;;;;;8.47;5.00;;;;;;;20.37;100.00;101947.53;4996742;28;20065;-48
2022/10/27 04:36:34;;;;;;;11.67;4.83;;;;;;;20.52;100.00;101952.50;5011969;28;20049;-53
2022/10/27 04:39:00;;;;;;;8.57;3.83;;;;;;;20.48;100.00;101960.31;5014288;28;20102;-49
2022/10/27 04:41:25;;;;;;;14.77;4.37;;;;;;;20.48;100.00;101952.16;4998100;28;20043;-51
2022/10/27 04:43:51;;;;;;;10.30;4.95;;;;;;;20.63;100.00;101959.84;5006084;28;20289;-49
2022/10/27 04:46:16;;;;;;;10.77;5.03;;;;;;;20.73;100.00;101951.91;4999935;28;20105;-50
2022/10/27 04:48:42;;;;;;;11.43;4.75;;;;;;;21.18;100.00;101952.38;5005279;28;20038;-51
2022/10/27 04:51:08;;;;;;;11.77;5.32;;;;;;;20.83;100.00;101947.81;5007499;28;20122;-49
2022/10/27 04:53:34;;;;;;;14.70;5.28;;;;;;;20.68;100.00;101949.09;5003494;28;20038;-47
2022/10/27 04:55:59;;;;;;;17.60;4.75;;;;;;;20.90;100.00;101946.66;5009490;28;20046;-48
2022/10/27 04:58:25;;;;;;;15.90;5.38;;;;;;;20.70;100.00;101949.69;5004434;28;20038;-50
2022/10/27 05:00:51;;;;;;;14.18;6.07;;;;;;;20.59;100.00;101948.63;5003333;28;20027;-46
2022/10/27 05:03:16;;;;;;;12.32;5.82;;;;;;;20.37;100.00;101948.38;5009027;28;20102;-49
2022/10/27 05:05:41;;;;;;;16.80;5.37;;;;;;;20.34;100.00;101941.50;5009414;28;20046;-51
2022/10/27 05:08:09;;;;;;;10.95;5.38;;;;;;;20.33;100.00;101945.28;4999626;28;20184;-48
2022/10/27 05:10:34;;;;;;;14.93;6.73;;;;;;;20.15;100.00;101937.22;5006225;28;20050;-53
2022/10/27 05:13:00;;;;;;;11.47;5.93;;;;;;;20.18;100.00;101932.16;5007538;28;20273;-50
2022/10/27 05:15:26;;;;;;;15.02;6.20;;;;;;;20.60;100.00;101942.13;5009880;28;20359;-46
2022/10/27 05:17:51;;;;;;;12.18;6.00;;;;;;;20.26;100.00;101941.88;5009061;28;20036;-50
2022/10/27 05:20:17;;;;;;;13.45;7.28;;;;;;;20.64;100.00;101937.06;5004628;28;20045;-47
2022/10/27 05:22:43;;;;;;;14.80;6.40;;;;;;;20.44;100.00;101938.22;5005416;28;20046;-49
2022/10/27 05:25:09;;;;;;;14.85;6.78;;;;;;;20.12;100.00;101935.81;5003384;28;20103;-46
2022/10/27 05:27:36;;;;;;;12.32;5.78;;;;;;;20.20;100.00;101935.47;5001017;28;20045;-50
2022/10/27 05:30:04;;;;;;;14.37;7.27;;;;;;;20.75;100.00;101946.25;5017981;28;20049;-49
2022/10/27 05:32:30;;;;;;;12.47;6.20;;;;;;;20.81;100.00;101942.63;5000403;28;20294;-50
2022/10/27 05:34:56;;;;;;;16.92;7.43;;;;;;;20.37;100.00;101945.66;5000480;28;20273;-48
2022/10/27 05:37:22;;;;;;;10.90;6.20;;;;;;;20.65;100.00;101944.13;5007715;28;20038;-50
2022/10/27 05:39:48;;;;;;;14.90;7.13;;;;;;;20.30;100.00;101939.53;4997085;28;20034;-46
2022/10/27 05:42:14;;;;;;;18.38;7.13;;;;;;;20.90;100.00;101946.66;5011226;28;20047;-52
2022/10/27 05:44:39;;;;;;;16.90;7.10;;;;;;;20.98;100.00;101941.91;5008639;28;20046;-48
2022/10/27 05:47:05;;;;;;;18.77;7.25;;;;;;;20.97;100.00;101940.25;5008304;28;20094;-51
2022/10/27 05:49:30;;;;;;;22.90;6.80;;;;;;;21.11;100.00;101940.81;5004129;28;20026;-52
2022/10/27 05:51:56;;;;;;;15.20;6.85;;;;;;;20.93;100.00;101937.16;5005344;28;20101;-51
2022/10/27 05:54:21;;;;;;;15.70;7.63;;;;;;;20.35;100.00;101939.63;5005762;28;20062;-47
2022/10/27 05:56:49;;;;;;;15.85;6.57;;;;;;;20.52;100.00;101942.47;5013080;28;20035;-46
2022/10/27 05:59:15;;;;;;;24.30;7.77;;;;;;;20.65;100.00;101935.19;5012415;28;20035;-50
2022/10/27 06:01:41;;;;;;;18.48;7.03;;;;;;;20.88;100.00;101935.19;5011280;28;20294;-52
2022/10/27 06:04:07;;;;;;;17.25;6.97;;;;;;;20.51;100.00;101932.69;5013205;28;20115;-48
2022/10/27 06:06:32;;;;;;;12.68;6.38;;;;;;;20.58;100.00;101935.28;5001941;28;20031;-49
2022/10/27 06:08:58;;;;;;;15.00;5.57;;;;;;;20.69;100.00;101933.63;5005633;28;20105;-52
2022/10/27 06:11:23;;;;;;;16.80;6.47;;;;;;;20.74;100.00;101929.09;5016263;28;20038;-50
2022/10/27 06:13:50;;;;;;;13.60;6.20;;;;;;;20.65;100.00;101929.72;5002602;28;20049;-47
2022/10/27 06:16:20;;;;;;;12.40;6.17;;;;;;;20.75;100.00;101938.91;5029103;28;20024;-51
2022/10/27 06:18:46;;;;;;;16.00;6.40;;;;;;;20.79;100.00;101933.84;5002886;28;20287;-52
2022/10/27 06:21:11;;;;;;;12.70;6.20;;;;;;;20.82;100.00;101936.13;5014367;28;20272;-53
2022/10/27 06:23:39;;;;;;;10.50;6.20;;;;;;;20.83;100.00;101934.25;5008223;28;20042;-49
2022/10/27 06:26:04;;;;;;;14.10;6.67;;;;;;;20.80;100.00;101934.72;5007907;28;20053;-51
2022/10/27 06:28:30;;;;;;;13.90;6.38;;;;;;;20.56;100.00;101929.25;5000325;28;20281;-53
2022/10/27 06:30:55;;;;;;;12.93;6.03;;;;;;;20.34;100.00;101935.28;5006548;28;20038;-52
2022/10/27 06:33:21;;;;;;;15.27;5.30;;;;;;;20.25;100.00;101928.50;5009132;28;20049;-52
2022/10/27 06:35:46;;;;;;;14.13;6.23;;;;;;;20.57;100.00;101925.47;5001964;28;20031;-48
2022/10/27 06:38:15;;;;;;;14.15;5.80;;;;;;;20.71;100.00;101929.59;5010271;28;20076;-51
2022/10/27 06:40:42;;;;;;;16.00;5.67;;;;;;;20.27;100.00;101931.81;5010961;28;20042;-51
2022/10/27 06:43:09;;;;;;;11.73;5.60;;;;;;;20.41;100.00;101929.69;4998256;28;20301;-52
2022/10/27 06:45:35;;;;;;;14.83;4.87;;;;;;;20.16;100.00;101923.44;5012922;28;20349;-48
2022/10/27 06:48:01;;;;;;;15.45;5.25;;;;;;;20.61;100.00;101921.22;5000192;28;20269;-49
2022/10/27 06:50:26;;;;;;;11.60;5.17;;;;;;;20.71;100.00;101918.72;5006685;28;20039;-54
2022/10/27 06:52:52;;;;;;;11.48;5.72;;;;;;;20.61;100.00;101916.59;5006207;28;20030;-50
2022/10/27 06:55:18;;;;;;;14.27;5.70;;;;;;;20.34;100.00;101911.63;5002796;28;20049;-51
2022/10/27 06:57:44;;;;;;;13.10;5.35;;;;;;;20.73;100.00;101916.59;4998427;28;20042;-48
2022/10/27 07:00:10;;;;;;;12.60;5.75;;;;;;;20.58;100.00;101905.41;5003635;28;20039;-52
2022/10/27 07:02:36;;;;;;;11.70;5.83;;;;;;;20.95;100.00;101902.41;5013926;28;20048;-50
2022/10/27 07:05:03;;;;;;;16.35;5.28;;;;;;;20.67;100.00;101903.16;5009071;28;20277;-52
2022/10/27 07:07:29;;;;;;;8.90;4.90;;;;;;;20.75;100.00;101906.31;5006944;28;20039;-50
2022/10/27 07:09:54;;;;;;;10.20;5.03;;;;;;;20.63;100.00;101909.03;5009114;28;20367;-52
2022/10/27 07:12:20;;;;;;;12.68;5.95;;;;;;;20.59;100.00;101909.75;5008971;28;20045;-53
2022/10/27 07:14:45;;;;;;;18.15;5.70;;;;;;;20.60;100.00;101914.13;5005571;28;20038;-51
2022/10/27 07:17:11;;;;;;;12.82;5.50;;;;;;;20.63;100.00;101916.38;5011282;28;20120;-52
2022/10/27 07:19:36;;;;;;;13.03;5.77;;;;;;;20.67;100.00;101914.00;5003710;28;20053;-51
2022/10/27 07:22:01;;;;;;;12.37;5.30;;;;;;;21.25;100.00;101908.72;5001755;28;20229;-52
2022/10/27 07:24:27;;;;;;;11.55;5.32;;;;;;;20.58;100.00;101905.41;5013194;28;20090;-51
2022/10/27 07:26:53;;;;;;;15.55;6.28;;;;;;;21.11;100.00;101914.44;5003405;28;20049;-53
2022/10/27 07:29:18;;;;;;;9.33;5.03;;;;;;;21.09;100.00;101913.03;5015973;28;20038;-54
2022/10/27 07:31:45;;;;;;;14.88;5.18;;;;;;;21.05;100.00;101910.78;5022988;28;20122;-55
2022/10/27 07:34:11;;;;;;;;;;;;;;;21.01;100.00;101912.34;5004215;28;20030;-49
2022/10/27 07:36:36;;;;;;;14.30;6.37;;;;;;;21.10;100.00;101911.97;5003548;28;19952;-54
2022/10/27 07:39:02;;;;;;;18.27;6.07;;;;;;;20.73;100.00;101918.50;5014629;28;20072;-53
2022/10/27 07:41:28;;;;;;;12.93;5.90;;;;;;;21.00;100.00;101913.41;5005139;28;20046;-55
2022/10/27 07:43:54;;;;;;;20.40;6.07;;;;;;;20.87;100.00;101917.19;5009832;28;20056;-53
2022/10/27 07:46:19;;;;;;;15.50;5.32;;;;;;;20.54;100.00;101912.38;5007798;28;20042;-53
2022/10/27 07:48:45;;;;;;;13.38;6.47;;;;;;;20.75;100.00;101909.03;5006599;28;20030;-52
2022/10/27 07:51:10;;;;;;;15.10;6.18;;;;;;;21.18;100.00;101917.84;5006209;28;20085;-50
2022/10/27 07:53:36;;;;;;;13.23;5.85;;;;;;;20.99;100.00;101919.06;4986679;28;20027;-52
2022/10/27 07:56:02;;;;;;;13.38;6.60;;;;;;;20.89;100.00;101909.66;4994906;28;20042;-54
2022/10/27 07:58:27;;;;;;;12.95;7.10;;;;;;;21.41;100.00;101918.84;4984972;28;20100;-52
2022/10/27 08:00:53;;;;;;;11.53;5.83;;;;;;;20.87;100.00;101916.38;4991477;28;20039;-52
2022/10/27 08:03:21;;;;;;;12.85;5.25;;;;;;;21.56;100.00;101914.75;4980644;28;20046;-54
2022/10/27 08:05:48;;;;;;;10.80;5.13;;;;;;;21.90;100.00;101917.56;4991215;28;20043;-52
2022/10/27 08:08:14;;;;;;;12.30;4.88;;;;;;;22.29;100.00;101916.84;4982663;28;20316;-49
2022/10/27 08:10:41;;;;;;;8.55;4.70;;;;;;;22.73;100.00;101919.69;4991184;28;20051;-55
2022/10/27 08:13:07;;;;;;;13.67;5.00;;;;;;;22.88;100.00;101919.06;4994583;28;20023;-52
2022/10/27 08:15:34;;;;;;;14.13;5.20;;;;;;;22.31;100.00;101914.69;4983307;28;20046;-50
2022/10/27 08:18:02;;;;;;;14.40;5.27;;;;;;;22.03;100.00;101914.53;4998539;28;20042;-54
2022/10/27 08:20:31;;;;;;;7.77;4.57;;;;;;;21.96;100.00;101911.13;4984951;28;20095;-51
2022/10/27 08:23:06;;;;;;;9.00;4.73;;;;;;;21.60;100.00;101905.84;4991909;28;20119;-53
2022/10/27 08:25:32;;;;;;;11.90;5.37;;;;;;;22.14;100.00;101915.50;4984507;28;20030;-51
2022/10/27 08:27:58;;;;;;;9.13;4.97;;;;;;;22.44;100.00;101903.47;4984046;28;20043;-50
2022/10/27 08:30:26;;;;;;;15.77;5.20;;;;;;;22.83;100.00;101910.00;4987994;28;20054;-52
2022/10/27 08:32:57;;;;;;;10.77;4.57;;;;;;;23.61;100.00;101909.84;4981668;28;20037;-53
2022/10/27 08:35:24;;;;;;;10.87;4.10;;;;;;;23.00;100.00;101899.06;4985948;28;20061;-54
2022/10/27 08:38:06;;;;;;;16.43;4.30;;;;;;;23.74;100.00;101910.50;4991978;28;20046;-49
2022/10/27 08:40:41;;;;;;;17.73;4.80;;;;;;;23.99;100.00;101900.88;4991297;28;20036;-50
2022/10/27 08:43:15;;;;;;;17.03;5.37;;;;;;;23.82;100.00;101885.47;4982621;28;20035;-53
2022/10/27 08:45:58;;;;;;;8.30;4.63;;;;;;;23.89;100.00;101890.72;4985321;28;20098;-52
2022/10/27 08:48:26;;;;;;;18.03;4.47;;;;;;;23.94;100.00;101884.47;4979977;28;20031;-48
2022/10/27 08:50:52;;;;;;;10.70;4.80;;;;;;;24.05;100.00;101897.16;4991993;28;20058;-54
2022/10/27 08:53:25;;;;;;;9.82;4.00;;;;;;;23.71;100.00;101903.66;5006924;28;20027;-54
2022/10/27 08:55:57;;;;;;;12.87;3.90;;;;;;;24.19;100.00;101901.06;5002672;28;20092;-51
2022/10/27 08:58:35;;;;;;;11.40;4.40;;;;;;;24.30;100.00;101904.69;5003739;28;20023;-51
2022/10/27 09:01:12;;;;;;;10.53;4.57;;;;;;;24.27;100.00;101896.22;5005972;28;20045;-54
2022/10/27 09:03:59;;;;;;;12.10;3.70;;;;;;;24.32;100.00;101891.59;4998124;28;20076;-50
2022/10/27 09:06:58;;;;;;;7.50;3.47;;;;;;;25.43;100.00;101900.84;5006117;28;20043;-53
2022/10/27 09:09:43;;;;;;;10.43;3.23;;;;;;;25.60;100.00;101892.44;5002157;28;20035;-51
2022/10/27 09:12:27;;;;;;;6.60;3.63;;;;;;;25.26;100.00;101892.06;5006738;28;20126;-50
2022/10/27 09:15:14;;;;;;;13.87;4.37;;;;;;;25.11;100.00;101892.84;5002747;28;20041;-53
2022/10/27 09:17:44;;;;;;;10.37;3.80;;;;;;;25.49;100.00;101885.28;5005305;28;20069;-53
2022/10/27 09:20:30;;;;;;;7.60;3.50;;;;;;;25.52;100.00;101879.28;5000179;28;20061;-51
2022/10/27 09:22:58;;;;;;;9.03;3.80;;;;;;;25.28;100.00;101882.50;4998743;28;20038;-52
2022/10/27 09:25:24;;;;;;;7.90;3.27;;;;;;;25.90;100.00;101874.38;5002003;28;20039;-54
2022/10/27 09:27:52;;;;;;;7.75;3.55;;;;;;;25.67;100.00;101885.88;5002913;28;20034;-51
2022/10/27 09:30:18;;;;;;;6.57;3.00;;;;;;;25.52;100.00;101884.75;5008134;28;20049;-49
2022/10/27 09:32:48;;;;;;;;;;;;;;;25.45;100.00;101875.97;5003396;28;20031;-48
2022/10/27 09:35:21;;;;;;;7.07;3.23;;;;;;;25.45;100.00;101868.53;5014439;28;20023;-53
2022/10/27 09:37:47;;;;;;;6.00;3.07;;;;;;;24.92;100.00;101865.97;4998428;28;20055;-51
2022/10/27 09:40:18;;;;;;;6.90;3.00;;;;;;;25.56;100.00;101855.72;5011967;28;20068;-51
2022/10/27 09:42:47;;;;;;;10.13;2.67;;;;;;;25.12;100.00;101847.94;4997784;28;20034;-50
2022/10/27 09:45:21;;;;;;;8.20;2.83;;;;;;;25.61;100.00;101849.44;5011373;28;20031;-54
2022/10/27 09:47:51;;;;;;;5.77;2.80;;;;;;;25.43;100.00;101842.56;5000214;28;20038;-53
2022/10/27 09:50:27;;;;;;;8.83;3.60;;;;;;;25.12;100.00;101843.31;4998366;28;20090;-52
2022/10/27 09:52:53;;;;;;;10.60;3.33;;;;;;;25.32;100.00;101842.53;5049508;28;20034;-50
2022/10/27 09:55:19;;;;;;;10.00;2.85;;;;;;;25.43;100.00;101843.34;5050263;28;20056;-52
2022/10/27 09:57:47;;;;;;;11.38;3.15;;;;;;;25.00;100.00;101842.72;5050991;28;20042;-54
2022/10/27 10:00:15;;;;;;;8.87;3.23;;;;;;;26.16;100.00;101851.56;5050895;28;20033;-54
2022/10/27 10:02:58;;;;;;;7.83;2.70;;;;;;;26.55;100.00;101841.94;5047674;28;20093;-49
2022/10/27 10:05:25;;;;;;;6.00;2.87;;;;;;;26.80;100.00;101854.69;5052684;28;20079;-51
2022/10/27 10:07:53;;;;;;;11.47;2.70;;;;;;;27.87;93.72;101851.56;5051621;28;20093;-50
2022/10/27 10:10:31;;;;;;;7.63;2.60;;;;;;;28.62;89.46;101854.09;5050941;28;20033;-52
2022/10/27 10:13:03;;;;;;;4.37;2.00;;;;;;;29.01;84.13;101863.25;5049980;28;20053;-50
2022/10/27 10:15:31;;;;;;;4.90;2.23;;;;;;;28.65;85.35;101852.69;5046113;28;20038;-53
2022/10/27 10:17:59;;;;;;;4.80;2.13;;;;;;;28.32;86.51;101845.91;5046326;28;20033;-52
2022/10/27 10:20:41;;;;;;;3.73;2.00;;;;;;;27.99;88.58;101829.19;5046185;28;20033;-51
2022/10/27 10:23:25;;;;;;;5.27;2.20;;;;;;;27.54;89.02;101818.34;5048415;28;20087;-52
2022/10/27 10:25:52;;;;;;;5.37;2.40;;;;;;;27.43;91.23;101827.72;5048743;28;20070;-50
2022/10/27 10:28:29;;;;;;;4.70;1.73;;;;;;;27.61;90.04;101807.81;5048910;28;20098;-51
2022/10/27 10:30:56;;;;;;;5.13;1.90;;;;;;;27.17;92.69;101816.91;5049156;28;20117;-47
2022/10/27 10:33:25;;;;;;;7.83;2.17;;;;;;;26.98;94.65;101817.56;5050614;28;20029;-49
2022/10/27 10:35:51;;;;;;;6.23;1.97;;;;;;;26.69;97.18;101815.50;5052400;28;20056;-52
2022/10/27 10:38:23;;;;;;;4.60;1.60;;;;;;;26.74;96.08;101820.16;5054683;28;20048;-51
2022/10/27 10:40:57;;;;;;;10.53;1.70;;;;;;;26.63;97.06;101808.41;5052527;28;20040;-50
2022/10/27 10:43:23;;;;;;;6.90;1.87;;;;;;;26.57;99.12;101809.56;5051952;28;20050;-50
2022/10/27 10:45:53;;;;;;;6.28;1.98;;;;;;;26.37;99.51;101808.53;5050863;28;20035;-52
2022/10/27 10:48:41;;;;;;;8.17;1.63;;;;;;;26.45;95.99;101818.91;5053374;28;20033;-51
2022/10/27 10:51:10;;;;;;;9.23;1.30;;;;;;;26.60;93.75;101814.47;5032342;28;20070;-55
2022/10/27 10:53:41;;;;;;;6.93;1.30;;;;;;;26.25;95.30;101799.78;5037590;28;20041;-49
2022/10/27 10:56:27;;;;;;;7.67;1.80;;;;;;;26.72;93.10;101812.22;5003472;28;20046;-54
2022/10/27 10:59:01;;;;;;;2.33;1.33;;;;;;;26.44;92.70;101798.06;5004009;28;20144;-50
2022/10/27 11:01:43;;;;;;;5.10;1.73;;;;;;;26.14;95.45;101799.78;5003059;28;20065;-50
2022/10/27 11:04:16;;;;;;;7.67;1.70;;;;;;;26.20;95.21;101798.69;5000130;28;20031;-48
2022/10/27 11:06:55;;;;;;;6.37;1.93;;;;;;;26.24;95.91;101789.91;5008890;28;20073;-51
2022/10/27 11:09:23;;;;;;;5.50;1.20;;;;;;;26.18;96.54;101795.41;5004135;28;20047;-51
2022/10/27 11:11:50;;;;;;;5.57;2.17;;;;;;;26.22;97.11;101779.25;5009397;28;20069;-52
2022/10/27 11:14:18;;;;;;;8.23;2.40;;;;;;;26.61;94.85;101784.00;5007535;28;20026;-50
2022/10/27 11:16:55;;;;;;;2.50;1.00;;;;;;;26.01;96.06;101778.44;4999627;28;20035;-50
2022/10/27 11:19:22;;;;;;;11.53;1.40;;;;;;;26.95;92.22;101785.22;5030354;28;20036;-50
2022/10/27 11:21:58;;;;;;;;;;;;;;;26.78;92.39;101791.06;5002943;28;20042;-51